createdAt,value
2019-06-15T00:01:48.060Z,10.13
2019-06-15T00:04:18.568Z,9.47
2019-06-15T00:06:49.068Z,10.20
2019-06-15T00:09:19.537Z,10.37
2019-06-15T00:11:50.037Z,11.00
2019-06-15T00:14:20.555Z,9.83
2019-06-15T00:16:51.011Z,10.83
2019-06-15T00:19:21.533Z,10.63
2019-06-15T00:21:52.022Z,10.77
2019-06-15T00:24:34.576Z,11.43
2019-06-15T00:26:54.790Z,10.10
2019-06-15T00:29:25.258Z,11.30
2019-06-15T00:31:55.753Z,11.40
2019-06-15T00:34:26.268Z,11.87
2019-06-15T00:36:56.841Z,10.97
2019-06-15T00:39:27.327Z,10.93
2019-06-15T00:41:57.900Z,10.70
2019-06-15T00:44:29.467Z,10.90
2019-06-15T00:46:59.934Z,10.70
2019-06-15T00:49:30.487Z,10.70
2019-06-15T00:52:01.048Z,11.17
2019-06-15T00:54:31.548Z,11.60
2019-06-15T00:57:02.052Z,11.03
2019-06-15T00:59:32.529Z,10.27
2019-06-15T01:02:03.028Z,11.13
2019-06-15T01:04:33.532Z,12.33
2019-06-15T01:07:04.019Z,11.67
2019-06-15T01:09:34.516Z,10.70
2019-06-15T01:12:05.228Z,11.00
2019-06-15T01:14:35.798Z,10.90
2019-06-15T01:17:06.355Z,10.90
2019-06-15T01:19:36.865Z,10.50
2019-06-15T01:22:07.376Z,9.70
2019-06-15T01:24:37.840Z,11.13
2019-06-15T01:27:08.339Z,11.27
2019-06-15T01:29:38.832Z,11.40
2019-06-15T01:32:09.324Z,10.70
2019-06-15T01:34:39.795Z,11.60
2019-06-15T01:37:10.275Z,10.90
2019-06-15T01:39:40.765Z,11.47
2019-06-15T01:42:11.749Z,11.90
2019-06-15T01:44:42.216Z,9.97
2019-06-15T01:47:12.719Z,10.70
2019-06-15T01:49:43.200Z,11.00
2019-06-15T01:52:13.706Z,10.90
2019-06-15T01:54:44.167Z,10.60
2019-06-15T01:57:15.337Z,11.03
2019-06-15T01:59:45.807Z,11.13
2019-06-15T02:02:16.316Z,10.53
2019-06-15T02:04:46.794Z,11.40
2019-06-15T02:07:17.335Z,9.60
2019-06-15T02:09:47.837Z,10.13
2019-06-15T02:12:18.302Z,10.73
2019-06-15T02:14:48.817Z,10.90
2019-06-15T02:17:19.321Z,11.10
2019-06-15T02:19:49.799Z,10.43
2019-06-15T02:22:20.313Z,11.10
2019-06-15T02:24:50.777Z,11.60
2019-06-15T02:27:21.280Z,11.50
2019-06-15T02:29:51.761Z,11.50
2019-06-15T02:32:22.266Z,10.17
2019-06-15T02:34:52.729Z,11.27
2019-06-15T02:37:23.227Z,10.63
2019-06-15T02:39:53.762Z,11.70
2019-06-15T02:42:24.342Z,11.20
2019-06-15T02:44:54.810Z,11.27
2019-06-15T02:47:25.315Z,10.80
2019-06-15T02:49:55.837Z,11.67
2019-06-15T02:52:26.421Z,11.53
2019-06-15T02:54:56.894Z,11.53
2019-06-15T02:57:27.389Z,11.80
2019-06-15T02:59:57.896Z,10.47
2019-06-15T03:02:28.371Z,11.73
2019-06-15T03:04:58.892Z,11.17
2019-06-15T03:07:29.420Z,11.07
2019-06-15T03:10:00.731Z,11.30
2019-06-15T03:12:31.773Z,11.37
2019-06-15T03:15:02.292Z,12.17
2019-06-15T03:17:32.771Z,11.40
2019-06-15T03:20:04.806Z,12.53
2019-06-15T03:22:35.472Z,11.77
2019-06-15T03:25:26.806Z,11.83
2019-06-15T03:27:57.299Z,12.70
2019-06-15T03:30:27.785Z,11.80
2019-06-15T03:32:58.281Z,12.83
2019-06-15T03:35:28.763Z,12.30
2019-06-15T03:37:59.330Z,12.17
2019-06-15T03:40:29.787Z,12.20
2019-06-15T03:43:00.300Z,11.63
2019-06-15T03:45:30.764Z,11.20
2019-06-15T03:48:01.280Z,11.47
2019-06-15T03:50:31.737Z,11.47
2019-06-15T03:53:02.254Z,10.80
2019-06-15T03:55:32.765Z,10.60
2019-06-15T03:58:03.311Z,11.30
2019-06-15T04:00:45.922Z,13.80
2019-06-15T04:03:16.701Z,11.07
2019-06-15T04:05:47.267Z,12.20
2019-06-15T04:08:17.750Z,11.60
2019-06-15T04:10:48.252Z,16.10
2019-06-15T04:13:18.722Z,13.67
2019-06-15T04:15:49.276Z,12.27
2019-06-15T04:18:19.799Z,11.40
2019-06-15T04:20:50.267Z,11.27
2019-06-15T04:23:20.783Z,11.80
2019-06-15T04:25:51.453Z,12.30
2019-06-15T04:28:22.032Z,11.47
2019-06-15T04:30:52.544Z,11.27
2019-06-15T04:33:23.013Z,11.83
2019-06-15T04:35:53.532Z,11.80
2019-06-15T04:38:24.002Z,13.70
2019-06-15T04:40:54.517Z,11.40
2019-06-15T04:43:25.020Z,11.90
2019-06-15T04:45:55.488Z,12.90
2019-06-15T04:48:25.993Z,11.17
2019-06-15T04:50:56.463Z,13.00
2019-06-15T04:53:26.966Z,13.50
2019-06-15T04:55:57.434Z,11.43
2019-06-15T04:58:27.974Z,12.07
2019-06-15T05:00:58.438Z,11.90
2019-06-15T05:03:28.951Z,12.17
2019-06-15T05:05:59.416Z,11.93
2019-06-15T05:08:29.915Z,12.10
2019-06-15T05:11:03.446Z,12.13
2019-06-15T05:13:32.676Z,16.47
2019-06-15T05:16:03.178Z,15.00
2019-06-15T05:18:33.673Z,21.03
2019-06-15T05:21:04.172Z,16.20
2019-06-15T05:23:34.643Z,30.67
2019-06-15T05:26:05.654Z,16.37
2019-06-15T05:28:36.187Z,16.10
2019-06-15T05:31:06.668Z,13.77
2019-06-15T05:33:37.178Z,15.23
2019-06-15T05:36:07.682Z,17.17
2019-06-15T05:38:38.198Z,12.67
2019-06-15T05:41:09.333Z,13.20
2019-06-15T05:43:45.996Z,14.07
2019-06-15T05:46:16.600Z,13.03
2019-06-15T05:48:47.110Z,12.10
2019-06-15T05:51:17.575Z,13.33
2019-06-15T05:53:48.084Z,14.03
2019-06-15T05:56:18.576Z,14.30
2019-06-15T05:58:49.049Z,14.63
2019-06-15T06:01:19.576Z,13.80
2019-06-15T06:03:50.035Z,14.70
2019-06-15T06:06:20.526Z,13.50
2019-06-15T06:08:51.068Z,13.90
2019-06-15T06:11:21.608Z,13.77
2019-06-15T06:13:52.103Z,13.50
2019-06-15T06:16:22.601Z,12.90
2019-06-15T06:18:53.091Z,13.90
2019-06-15T06:21:23.581Z,13.60
2019-06-15T06:23:54.068Z,12.63
2019-06-15T06:26:24.578Z,13.30
2019-06-15T06:28:57.434Z,12.40
2019-06-15T06:31:27.261Z,13.03
2019-06-15T06:33:57.734Z,13.23
2019-06-15T06:36:29.333Z,12.70
2019-06-15T06:38:59.874Z,12.60
2019-06-15T06:41:31.035Z,12.43
2019-06-15T06:44:01.512Z,14.03
2019-06-15T06:46:33.376Z,13.50
2019-06-15T06:49:03.875Z,13.90
2019-06-15T06:51:34.385Z,14.17
2019-06-15T06:54:05.088Z,15.00
2019-06-15T06:56:35.598Z,14.17
2019-06-15T06:59:06.074Z,14.90
2019-06-15T07:01:36.584Z,14.47
2019-06-15T07:04:07.087Z,13.90
2019-06-15T07:06:37.553Z,14.10
2019-06-15T07:09:08.494Z,14.83
2019-06-15T07:11:38.967Z,13.77
2019-06-15T07:14:09.464Z,12.90
2019-06-15T07:16:40.013Z,14.73
2019-06-15T07:19:10.508Z,14.10
2019-06-15T07:21:40.990Z,14.90
2019-06-15T07:24:11.494Z,14.93
2019-06-15T07:26:41.962Z,15.03
2019-06-15T07:29:12.543Z,14.23
2019-06-15T07:31:43.051Z,14.33
2019-06-15T07:34:14.853Z,13.50
2019-06-15T07:36:45.338Z,15.97
2019-06-15T07:39:15.864Z,14.80
2019-06-15T07:41:46.368Z,16.43
2019-06-15T07:44:16.873Z,16.43
2019-06-15T07:46:47.422Z,16.40
2019-06-15T07:49:17.898Z,16.10
2019-06-15T07:51:48.477Z,16.50
2019-06-15T07:54:18.979Z,16.20
2019-06-15T07:56:49.513Z,16.63
2019-06-15T07:59:20.061Z,18.50
2019-06-15T08:01:50.597Z,16.97
2019-06-15T08:04:21.085Z,18.50
2019-06-15T08:06:51.628Z,19.13
2019-06-15T08:09:22.135Z,19.70
2019-06-15T08:11:52.710Z,18.30
2019-06-15T08:14:23.373Z,19.17
2019-06-15T08:16:54.390Z,19.20
2019-06-15T08:19:24.863Z,19.80
2019-06-15T08:21:55.437Z,18.30
2019-06-15T08:24:25.913Z,20.37
2019-06-15T08:26:56.417Z,20.57
2019-06-15T08:29:26.896Z,20.77
2019-06-15T08:31:57.386Z,19.60
2019-06-15T08:34:28.254Z,20.63
2019-06-15T08:36:58.788Z,21.47
2019-06-15T08:39:29.253Z,21.17
2019-06-15T08:41:59.754Z,21.27
2019-06-15T08:44:30.275Z,21.43
2019-06-15T08:47:00.753Z,22.10
2019-06-15T08:49:31.266Z,20.43
2019-06-15T08:52:04.217Z,22.70
2019-06-15T08:54:33.953Z,21.00
2019-06-15T08:57:04.624Z,22.93
2019-06-15T08:59:35.163Z,22.60
2019-06-15T09:02:05.764Z,21.53
2019-06-15T09:04:36.251Z,23.93
2019-06-15T09:07:06.771Z,22.50
2019-06-15T09:09:37.336Z,22.87
2019-06-15T09:12:07.840Z,22.73
2019-06-15T09:14:38.803Z,21.57
2019-06-15T09:17:09.305Z,21.70
2019-06-15T09:19:39.806Z,21.67
2019-06-15T09:22:10.313Z,22.20
2019-06-15T09:24:40.815Z,21.93
2019-06-15T09:27:11.321Z,21.53
2019-06-15T09:29:41.783Z,21.03
2019-06-15T09:32:12.293Z,21.13
2019-06-15T09:34:42.774Z,19.97
2019-06-15T09:37:13.265Z,20.77
2019-06-15T09:39:43.738Z,21.67
2019-06-15T09:42:14.240Z,21.87
2019-06-15T09:44:45.102Z,21.93
2019-06-15T09:47:15.601Z,21.30
2019-06-15T09:49:46.140Z,21.10
2019-06-15T09:52:16.793Z,20.63
2019-06-15T09:54:47.259Z,22.40
2019-06-15T09:57:17.754Z,20.90
2019-06-15T09:59:48.233Z,22.00
2019-06-15T10:02:18.813Z,21.70
2019-06-15T10:04:49.345Z,20.60
2019-06-15T10:07:19.836Z,21.80
2019-06-15T10:09:50.309Z,22.10
2019-06-15T10:12:20.807Z,20.60
2019-06-15T10:14:51.291Z,21.90
2019-06-15T10:17:21.862Z,19.57
2019-06-15T10:19:52.361Z,20.77
2019-06-15T10:22:22.863Z,20.33
2019-06-15T10:24:53.337Z,21.63
2019-06-15T10:27:23.839Z,19.70
2019-06-15T10:29:54.396Z,21.00
2019-06-15T10:32:24.919Z,20.03
2019-06-15T10:34:56.208Z,19.57
2019-06-15T10:37:26.712Z,20.40
2019-06-15T10:39:58.758Z,18.97
2019-06-15T10:42:29.265Z,18.87
2019-06-15T10:44:59.766Z,18.90
2019-06-15T10:47:30.267Z,18.50
2019-06-15T10:50:00.790Z,18.00
2019-06-15T10:52:31.404Z,18.83
2019-06-15T10:55:02.559Z,19.30
2019-06-15T10:57:33.045Z,19.23
2019-06-15T11:00:09.052Z,18.93
2019-06-15T11:02:41.216Z,18.30
2019-06-15T11:05:15.445Z,18.03
2019-06-15T11:07:45.912Z,17.03
2019-06-15T11:10:23.031Z,17.20
2019-06-15T11:12:53.638Z,15.33
2019-06-15T11:15:24.249Z,15.33
2019-06-15T11:17:54.820Z,16.37
2019-06-15T11:20:25.343Z,15.20
2019-06-15T11:22:55.845Z,14.63
2019-06-15T11:25:26.686Z,14.17
2019-06-15T11:27:57.190Z,13.97
2019-06-15T11:30:27.694Z,14.57
2019-06-15T11:32:58.216Z,14.20
2019-06-15T11:35:28.694Z,14.73
2019-06-15T11:37:59.261Z,14.27
2019-06-15T11:40:29.809Z,14.83
2019-06-15T11:43:00.312Z,14.77
2019-06-15T11:45:32.460Z,14.23
2019-06-15T11:48:02.958Z,13.10
2019-06-15T11:50:33.566Z,14.13
2019-06-15T11:53:04.102Z,13.87
2019-06-15T11:55:39.545Z,13.50
2019-06-15T11:58:06.875Z,12.90
2019-06-15T12:01:02.376Z,14.10
2019-06-15T12:03:32.883Z,13.70
2019-06-15T12:06:03.395Z,13.80
2019-06-15T12:08:33.931Z,13.87
2019-06-15T12:11:04.430Z,12.80
2019-06-15T12:13:34.905Z,13.80
2019-06-15T12:16:05.487Z,13.00
2019-06-15T12:18:35.960Z,13.40
2019-06-15T12:21:06.486Z,12.57
2019-06-15T12:23:37.001Z,13.30
2019-06-15T12:26:07.498Z,12.67
2019-06-15T12:28:38.580Z,12.73
2019-06-15T12:31:09.278Z,11.90
2019-06-15T12:33:39.755Z,12.67
2019-06-15T12:36:18.842Z,11.53
2019-06-15T12:38:42.718Z,11.43
2019-06-15T12:41:13.218Z,11.97
2019-06-15T12:43:43.768Z,11.87
2019-06-15T12:46:14.270Z,10.53
2019-06-15T12:48:44.775Z,10.73
2019-06-15T12:51:15.247Z,12.30
2019-06-15T12:53:45.748Z,11.20
2019-06-15T12:56:16.217Z,11.33
2019-06-15T12:58:46.714Z,12.07
2019-06-15T13:01:17.198Z,10.73
2019-06-15T13:03:47.706Z,12.00
2019-06-15T13:06:18.200Z,11.00
2019-06-15T13:08:48.692Z,11.90
2019-06-15T13:11:19.222Z,10.73
2019-06-15T13:13:49.733Z,10.90
2019-06-15T13:16:20.207Z,12.10
2019-06-15T13:18:51.289Z,11.77
2019-06-15T13:21:21.801Z,11.23
2019-06-15T13:23:52.277Z,11.43
2019-06-15T13:26:22.861Z,11.27
2019-06-15T13:28:53.394Z,11.53
2019-06-15T13:31:23.998Z,12.07
2019-06-15T13:33:54.502Z,10.60
2019-06-15T13:36:25.087Z,10.10
2019-06-15T13:38:55.725Z,10.80
2019-06-15T13:41:26.224Z,10.83
2019-06-15T13:43:56.699Z,10.63
2019-06-15T13:46:27.272Z,12.10
2019-06-15T13:48:57.778Z,12.93
2019-06-15T13:51:28.278Z,11.80
2019-06-15T13:53:58.774Z,11.60
2019-06-15T13:56:29.265Z,11.70
2019-06-15T13:59:00.720Z,11.23
2019-06-15T14:01:34.412Z,12.10
2019-06-15T14:04:03.388Z,10.70
2019-06-15T14:06:33.859Z,12.57
2019-06-15T14:09:06.694Z,11.90
2019-06-15T14:11:37.180Z,12.00
2019-06-15T14:14:07.677Z,11.70
2019-06-15T14:16:39.028Z,13.53
2019-06-15T14:19:09.530Z,12.10
2019-06-15T14:21:40.011Z,11.90
2019-06-15T14:24:10.519Z,12.70
2019-06-15T14:26:41.048Z,13.00
2019-06-15T14:29:11.588Z,13.00
2019-06-15T14:31:50.321Z,12.37
2019-06-15T14:34:14.353Z,13.10
2019-06-15T14:36:44.928Z,12.43
2019-06-15T14:39:15.448Z,10.93
2019-06-15T14:41:49.984Z,12.33
2019-06-15T14:44:18.198Z,11.20
2019-06-15T14:46:48.740Z,11.50
2019-06-15T14:49:19.266Z,11.00
2019-06-15T14:51:51.094Z,11.77
2019-06-15T14:54:21.711Z,12.27
2019-06-15T14:56:52.235Z,11.40
2019-06-15T14:59:22.816Z,11.63
2019-06-15T15:02:09.078Z,11.33
2019-06-15T15:04:26.571Z,12.30
2019-06-15T15:06:57.243Z,12.00
2019-06-15T15:09:28.821Z,11.57
2019-06-15T15:12:00.536Z,12.47
2019-06-15T15:14:31.026Z,12.33
2019-06-15T15:17:01.579Z,13.20
2019-06-15T15:19:32.042Z,13.03
2019-06-15T15:22:02.558Z,13.37
2019-06-15T15:24:33.017Z,13.40
2019-06-15T15:27:03.536Z,12.30
2019-06-15T15:29:35.215Z,13.20
2019-06-15T15:32:07.980Z,12.20
2019-06-15T15:34:38.022Z,12.73
2019-06-15T15:37:09.429Z,12.90
2019-06-15T15:39:39.914Z,12.33
2019-06-15T15:42:10.429Z,12.63
2019-06-15T15:44:40.986Z,11.73
2019-06-15T15:47:11.501Z,12.43
2019-06-15T15:49:43.305Z,13.27
2019-06-15T15:52:13.849Z,11.97
2019-06-15T15:54:46.698Z,12.70
2019-06-15T15:57:17.198Z,13.03
2019-06-15T15:59:47.829Z,14.60
2019-06-15T16:02:18.315Z,13.57
2019-06-15T16:04:48.834Z,13.80
2019-06-15T16:07:20.276Z,13.50
2019-06-15T16:09:50.783Z,13.20
2019-06-15T16:12:21.264Z,12.97
2019-06-15T16:14:51.762Z,12.97
2019-06-15T16:17:22.633Z,13.33
2019-06-15T16:19:53.141Z,14.37
2019-06-15T16:22:26.165Z,13.77
2019-06-15T16:24:56.544Z,12.70
2019-06-15T16:27:27.023Z,14.00
2019-06-15T16:29:57.530Z,12.57
2019-06-15T16:32:28.006Z,14.90
2019-06-15T16:34:58.513Z,14.63
2019-06-15T16:37:28.984Z,13.83
2019-06-15T16:39:59.492Z,12.90
2019-06-15T16:42:29.962Z,12.70
2019-06-15T16:45:00.647Z,14.23
2019-06-15T16:47:32.027Z,14.30
2019-06-15T16:50:02.565Z,13.63
2019-06-15T16:52:33.129Z,14.27
2019-06-15T16:55:03.629Z,13.57
2019-06-15T16:57:34.131Z,13.47
2019-06-15T17:00:08.009Z,14.70
2019-06-15T17:02:38.535Z,15.27
2019-06-15T17:05:09.151Z,14.13
2019-06-15T17:07:39.667Z,14.57
2019-06-15T17:10:10.280Z,14.47
2019-06-15T17:12:40.799Z,15.47
2019-06-15T17:15:12.332Z,14.37
2019-06-15T17:17:42.887Z,14.90
2019-06-15T17:20:18.356Z,17.00
2019-06-15T17:22:49.013Z,16.20
2019-06-15T17:25:19.884Z,34.20
2019-06-15T17:27:50.381Z,19.63
2019-06-15T17:30:21.009Z,16.43
2019-06-15T17:32:51.578Z,16.70
2019-06-15T17:35:22.047Z,14.90
2019-06-15T17:37:52.553Z,16.47
2019-06-15T17:40:23.743Z,16.67
2019-06-15T17:42:54.445Z,17.57
2019-06-15T17:45:26.644Z,16.40
2019-06-15T17:47:57.359Z,16.63
2019-06-15T17:50:40.348Z,16.77
2019-06-15T17:53:10.852Z,17.40
2019-06-15T17:55:41.529Z,17.37
2019-06-15T17:58:12.041Z,15.67
2019-06-15T18:01:01.864Z,16.87
2019-06-15T18:03:32.377Z,17.00
2019-06-15T18:06:02.847Z,17.33
2019-06-15T18:08:33.352Z,16.77
2019-06-15T18:11:06.829Z,18.13
2019-06-15T18:13:37.554Z,17.63
2019-06-15T18:16:08.055Z,18.60
2019-06-15T18:18:38.576Z,18.83
2019-06-15T18:21:09.051Z,18.80
2019-06-15T18:23:39.561Z,19.20
2019-06-15T18:26:10.837Z,20.90
2019-06-15T18:28:41.382Z,18.20
2019-06-15T18:31:11.891Z,19.63
2019-06-15T18:33:42.361Z,18.20
2019-06-15T18:36:12.869Z,18.40
2019-06-15T18:38:43.377Z,18.97
2019-06-15T18:41:13.858Z,19.90
2019-06-15T18:43:45.897Z,18.73
2019-06-15T18:46:16.399Z,20.80
2019-06-15T18:48:47.187Z,20.20
2019-06-15T18:51:17.655Z,20.60
2019-06-15T18:53:49.450Z,21.03
2019-06-15T18:56:19.945Z,19.23
2019-06-15T18:58:50.421Z,18.90
2019-06-15T19:01:20.912Z,19.70
2019-06-15T19:03:51.451Z,19.53
2019-06-15T19:06:21.938Z,19.60
2019-06-15T19:08:52.422Z,19.90
2019-06-15T19:11:22.918Z,20.10
2019-06-15T19:13:56.177Z,18.43
2019-06-15T19:16:25.637Z,20.30
2019-06-15T19:18:56.679Z,19.40
2019-06-15T19:21:27.288Z,21.50
2019-06-15T19:23:57.867Z,20.20
2019-06-15T19:26:28.340Z,20.70
2019-06-15T19:28:58.842Z,20.90
2019-06-15T19:31:29.321Z,20.57
2019-06-15T19:34:00.490Z,21.20
2019-06-15T19:36:31.003Z,19.50
2019-06-15T19:39:01.533Z,18.90
2019-06-15T19:41:32.088Z,18.93
2019-06-15T19:44:02.775Z,19.30
2019-06-15T19:46:33.309Z,19.70
2019-06-15T19:49:06.199Z,19.47
2019-06-15T19:51:36.391Z,20.80
2019-06-15T19:54:07.149Z,30.13
2019-06-15T19:56:38.433Z,23.90
2019-06-15T19:59:09.069Z,22.20
2019-06-15T20:01:39.584Z,20.90
2019-06-15T20:04:10.915Z,20.30
2019-06-15T20:06:41.741Z,21.00
2019-06-15T20:09:13.794Z,18.70
2019-06-15T20:11:46.883Z,19.47
2019-06-15T20:14:24.483Z,20.23
2019-06-15T20:16:56.108Z,20.73
2019-06-15T20:19:29.500Z,19.70
2019-06-15T20:22:00.794Z,20.87
2019-06-15T20:24:31.063Z,19.43
2019-06-15T20:27:01.566Z,21.57
2019-06-15T20:29:32.068Z,20.57
2019-06-15T20:32:02.588Z,20.50
2019-06-15T20:34:33.099Z,20.87
2019-06-15T20:37:03.678Z,21.30
2019-06-15T20:39:36.315Z,21.00
2019-06-15T20:42:07.866Z,19.97
2019-06-15T20:44:39.230Z,22.13
2019-06-15T20:47:10.677Z,21.40
2019-06-15T20:49:41.189Z,22.13
2019-06-15T20:52:11.665Z,22.40
2019-06-15T20:54:42.185Z,21.33
2019-06-15T20:57:12.658Z,21.00
2019-06-15T20:59:43.167Z,22.37
2019-06-15T21:02:15.999Z,21.80
2019-06-15T21:04:46.124Z,21.60
2019-06-15T21:07:16.591Z,21.67
2019-06-15T21:09:47.116Z,21.33
2019-06-15T21:12:17.683Z,21.57
2019-06-15T21:14:48.173Z,21.30
2019-06-15T21:17:18.711Z,22.20
2019-06-15T21:19:49.141Z,21.67
2019-06-15T21:22:19.642Z,19.20
2019-06-15T21:24:50.116Z,20.87
2019-06-15T21:27:20.612Z,21.43
2019-06-15T21:29:51.085Z,21.37
2019-06-15T21:32:21.629Z,21.33
2019-06-15T21:34:52.897Z,21.03
2019-06-15T21:37:25.920Z,22.40
2019-06-15T21:39:56.265Z,21.13
2019-06-15T21:42:26.887Z,21.23
2019-06-15T21:44:57.366Z,21.80
2019-06-15T21:47:27.841Z,20.60
2019-06-15T21:49:58.309Z,21.20
2019-06-15T21:52:28.833Z,21.67
2019-06-15T21:54:59.311Z,21.07
2019-06-15T21:57:29.981Z,22.50
2019-06-15T22:00:00.464Z,22.30
2019-06-15T22:02:30.974Z,20.77
2019-06-15T22:05:01.457Z,23.20
2019-06-15T22:07:31.952Z,22.50
2019-06-15T22:10:02.538Z,23.13
2019-06-15T22:12:33.022Z,21.40
2019-06-15T22:15:06.752Z,22.10
2019-06-15T22:17:37.102Z,21.73
2019-06-15T22:20:08.885Z,21.53
2019-06-15T22:22:39.528Z,21.50
2019-06-15T22:25:10.440Z,21.20
2019-06-15T22:27:40.930Z,22.77
2019-06-15T22:30:12.539Z,21.33
2019-06-15T22:32:43.046Z,21.33
2019-06-15T22:35:16.366Z,21.40
2019-06-15T22:37:46.747Z,21.60
2019-06-15T22:40:19.169Z,22.83
2019-06-15T22:42:49.640Z,22.57
2019-06-15T22:45:20.140Z,22.80
2019-06-15T22:47:50.643Z,21.73
2019-06-15T22:50:21.208Z,22.30
2019-06-15T22:52:51.676Z,22.23
2019-06-15T22:55:22.358Z,21.33
2019-06-15T22:57:52.897Z,21.57
2019-06-15T23:00:23.479Z,20.90
2019-06-15T23:02:56.532Z,21.17
2019-06-15T23:05:26.355Z,22.00
2019-06-15T23:07:56.995Z,21.90
2019-06-15T23:10:27.469Z,21.40
2019-06-15T23:12:57.977Z,23.00
2019-06-15T23:15:28.478Z,21.03
2019-06-15T23:17:58.969Z,20.53
2019-06-15T23:20:29.466Z,20.47
2019-06-15T23:22:59.945Z,21.40
2019-06-15T23:25:30.439Z,20.50
2019-06-15T23:28:00.930Z,20.30
2019-06-15T23:30:31.442Z,21.93
2019-06-15T23:33:01.886Z,21.50
2019-06-15T23:35:34.059Z,21.80
2019-06-15T23:38:06.506Z,21.00
2019-06-15T23:40:36.809Z,21.33
2019-06-15T23:43:07.295Z,20.50
2019-06-15T23:45:37.819Z,20.80
2019-06-15T23:48:08.260Z,21.60
2019-06-15T23:50:38.760Z,21.60
2019-06-15T23:53:09.227Z,22.70
2019-06-15T23:55:39.726Z,20.07
2019-06-15T23:58:10.234Z,21.53
